INFORMACIÓN METAR y TAF
METAR FOR WAAA
ADDS - METARS form results

(1728 UTC 06 July 2020)
Data provider http://aviationweather.gov/metar/data/
 
METAR text: WAAA 061700Z 14001KT 8000 FEW020 24/24 Q1010 NOSIG
Conditions at: WAAA (HASANUDDIN/UJUNG, ID) observed 1700 UTC 06 July 2020
Temperature: 24.0°C (75°F)
Dewpoint: 24.0°C (75°F) [RH = 100%]
Pressure (altimeter): 29.82 inches Hg (1010.0 mb)
Winds: from the SE (140 degrees) at 1 MPH (1 knots; 0.5 m/s)
Visibility: 5 miles ( 8 km)
Ceiling: at least 12,000 feet AGL
Clouds: few clouds at 2000 feet AGL
Weather: no significant weather observed at this time

METAR text: WAAA 061630Z VRB02KT 8000 FEW020 25/24 Q1010 NOSIG
Conditions at: WAAA (HASANUDDIN/UJUNG, ID) observed 1630 UTC 06 July 2020
Temperature: 25.0°C (77°F)
Dewpoint: 24.0°C (75°F) [RH = 94%]
Pressure (altimeter): 29.82 inches Hg (1010.0 mb)
Winds: variable direction winds at 2 MPH (2 knots; 1.0 m/s)
Visibility: 5 miles ( 8 km)
Ceiling: at least 12,000 feet AGL
Clouds: few clouds at 2000 feet AGL
Weather: no significant weather observed at this time

Forecast for: WAAA (HASANUDDIN/UJUNG, ID)
Text: TAF WAAA 061700Z 0618/0800 20004KT 8000 SCT019
Forecast period: 1800 UTC 06 July 2020 to 0100 UTC 07 July 2020
Forecast type: FROM: standard forecast or significant change
Winds: from the SSW (200 degrees) at 5 MPH (4 knots; 2.1 m/s)
Visibility: 5 miles (8 km)
Ceiling: at least 12,000 feet AGL
Clouds: scattered clouds at 1900 feet AGL
Weather: no significant weather forecast for this period
Text: TEMPO 0618/0622 -RA
Forecast period: 1800 to 2200 UTC 06 July 2020
Forecast type: TEMPORARY: The following changes expected for less than half the time period
Visibility: missing
Ceiling: unknown
Clouds: missing
Weather: -RA  (light rain)
Text: BECMG 0701/0703 30010KT 9999
Forecast period: 0100 UTC 07 July 2020 to 0000 UTC 08 July 2020
Forecast type: BECOMING: Conditions expected to become as follows by 0300 UTC 07 July 2020
Winds: from the WNW (300 degrees) at 12 MPH (10 knots; 5.1 m/s)
Visibility: 6 or more miles 10+ km)
Ceiling: at least 12,000 feet AGL
Clouds: scattered clouds at 1900 feet AGL
Weather: no significant weather forecast for this period

 MAPA DE AEROPUERTO

 INFORMACIÓN DE PISTA
Pista 03 Longitud 0 ft Ancho 0 ft
Elevación 0 ft Umbral desplazado 0 ft Rumbo de pista 29
Pista 21 Longitud 0 ft Ancho 0 ft
Elevación 0 ft Umbral desplazado 0 ft Rumbo de pista 209
Pista 13 Longitud 8202 ft Ancho 148 ft
Elevación 44 ft Umbral desplazado 0 ft Rumbo de pista 131
Pista 31 Longitud 8202 ft Ancho 148 ft
Elevación 36 ft Umbral desplazado 0 ft Rumbo de pista 311

 FRECUANCIAS DEL AEROPUERTO
Tipo APP Nombre UJUNG PAND Frecuencia 119.4 MHZ
Tipo ATIS Nombre ATIS Frecuencia 126.25 MHZ
Tipo INFO Nombre UJUNG INFO Frecuencia 295.6 MHZ
Tipo TWR Nombre TWR Frecuencia 118.1 MHZ

 RADIO AYUDAS DEL AEROPUERTO
Tipo VOR-DME Nombre Hasanuddin Frecuencia 114700 KHZ
Tipo NDB Nombre Hasanuddin Frecuencia 375 KHZ